Terminal Aerodrome Forecast
Issued by NWS Northern Indiana

Home | Current Version | Previous Version | Text Only | Print | Product List | Glossary Off
Versions: 1 2 3 4 5 6 7 8 9 10 11 12 13 14 15 16 17 18

698
FTUS43 KIWX 272333
TAFFWA
TAF
KFWA 272333Z 2800/2824 25010KT P6SM SCT020 OVC035
      TEMPO 2801/2805 OVC020
     FM280700 19005KT P6SM SCT020 OVC100
     FM281600 17010KT P6SM OVC080=

USA.gov is the U.S. government's official web portal to all federal, state and local government web resources and services.